Latest Weather Observations for Roma

IDQ60801

Issued at 3:35 pm EST Thursday 24 April 2014 (issued every 30 minutes, with the page automatically refreshed every 10 minutes)

About weather observations | Map of weather stations | Latest weather observations for QLD | Other Formats
Station Details ID: 043091 Name: ROMA AIRPORT Lat: -26.55 Lon: 148.77 Height: 307.38 m
Data from the previous 72 hours. | See also: Recent months at Roma
Date/Time
EST
Temp
°C
App
Temp
°C
Dew
Point
Rel
Hum
%
Delta-T
°C
Wind Press
QNH
hPa
Press
MSL
hPa
Rain
since 9 am
mm
Dir
 
Spd
km/h
Gust
km/h
Spd
kts
Gust
kts
24/03:30pm 28.8 25.8 7.9 27 11.5 E 13 19 7 10 1014.3 - 0.0
24/03:00pm 28.9 25.1 7.5 26 11.7 ESE 17 24 9 13 1014.3 1012.7 0.0
24/02:30pm 29.2 27.2 8.8 28 11.4 E 9 17 5 9 1014.2 - 0.0
24/02:00pm 28.8 25.2 8.5 28 11.3 E 17 30 9 16 1014.5 - 0.0
24/01:30pm 28.3 25.4 8.1 28 11.1 E 13 24 7 13 1014.8 - 0.0
24/01:00pm 28.6 24.0 6.7 25 11.8 ENE 20 24 11 13 1015.1 - 0.0
24/12:30pm 28.6 25.9 8.8 29 11.0 NE 13 24 7 13 1015.5 - 0.0
24/12:00pm 28.7 26.3 9.9 31 10.7 NE 13 20 7 11 1015.9 1014.4 0.0
24/11:30am 27.9 26.3 11.5 36 9.5 NNE 11 19 6 10 1016.7 - 0.0
24/11:00am 27.0 25.5 10.7 36 9.3 N 9 15 5 8 1017.4 - 0.0
24/10:30am 26.3 25.0 12.4 42 8.1 NNE 11 17 6 9 1017.9 - 0.0
24/10:00am 25.6 23.7 13.1 46 7.4 NNE 15 19 8 10 1018.2 - 0.0
24/09:30am 23.9 22.7 12.8 49 6.5 N 11 17 6 9 1018.0 - 0.0
24/09:00am 21.8 20.1 12.4 55 5.4 N 13 15 7 8 1018.2 1016.6 0.0
24/08:30am 20.5 18.4 12.5 60 4.6 N 15 19 8 10 1017.9 - 0.0
24/08:00am 18.4 17.4 12.4 68 3.4 N 9 11 5 6 1017.6 - 0.0
24/07:30am 15.8 15.1 11.4 75 2.4 NNE 6 9 3 5 1017.4 - 0.0
24/07:00am 12.1 11.0 10.0 87 1.1 E 6 7 3 4 1017.0 - 0.0
24/06:30am 10.8 8.9 8.9 88 1.0 ENE 9 11 5 6 1016.6 - 0.0
24/06:00am 11.0 9.7 9.1 88 1.0 NNW 6 7 3 4 1016.5 1015.0 0.0
24/05:30am 11.2 9.3 9.1 87 1.1 N 9 13 5 7 1016.1 - 0.0
24/05:00am 12.2 11.2 10.4 89 0.9 NNE 6 7 3 4 1015.9 - 0.0
24/04:30am 11.7 9.9 9.4 86 1.2 NE 9 9 5 5 1015.6 - 0.0
24/04:00am 12.1 10.4 10.0 87 1.1 N 9 13 5 7 1015.5 - 0.0
24/03:30am 12.1 10.4 10.0 87 1.1 NNE 9 13 5 7 1015.6 - 0.0
24/03:00am 12.4 12.4 9.8 84 1.3 CALM 0 0 0 0 1015.9 1014.4 0.0
24/02:30am 12.2 11.8 9.8 85 1.2 E 2 6 1 3 1016.0 - 0.0
24/02:00am 13.1 11.8 10.1 82 1.6 NE 7 9 4 5 1015.9 - 0.0
24/01:30am 14.2 13.4 11.2 82 1.6 NNE 6 6 3 3 1016.2 - 0.0
24/01:00am 15.6 13.9 11.2 75 2.4 N 11 15 6 8 1016.3 - 0.0
24/12:30am 15.3 13.4 11.7 79 2.0 N 13 15 7 8 1016.5 - 0.0
24/12:00am 15.0 13.6 11.0 77 2.2 N 9 11 5 6 1016.9 1015.4 0.0
 
Date/Time
EST
Temp
°C
App
Temp
°C
Dew
Point
Rel
Hum
%
Delta-T
°C
Wind Press
QNH
hPa
Press
MSL
hPa
Rain
since 9 am
mm
Dir
 
Spd
km/h
Gust
km/h
Spd
kts
Gust
kts
23/11:30pm 15.5 16.2 12.1 80 1.9 CALM 0 6 0 3 1017.3 - 0.0
23/11:00pm 15.6 14.5 11.8 78 2.1 N 9 9 5 5 1017.3 - 0.0
23/10:30pm 15.8 14.7 11.8 77 2.2 N 9 11 5 6 1017.5 - 0.0
23/10:00pm 16.2 14.7 12.0 76 2.3 N 11 13 6 7 1017.6 - 0.0
23/09:30pm 16.4 15.7 12.0 75 2.4 NNE 7 9 4 5 1017.6 - 0.0
23/09:00pm 16.9 15.7 11.6 71 2.9 NNE 9 11 5 6 1017.5 1015.9 0.0
23/08:30pm 17.3 16.3 11.1 67 3.4 N 7 9 4 5 1017.4 - 0.0
23/08:00pm 18.3 17.5 11.6 65 3.7 N 7 9 4 5 1017.0 - 0.0
23/07:30pm 19.3 18.5 11.6 61 4.3 N 7 9 4 5 1016.8 - 0.0
23/07:00pm 20.2 18.9 11.4 57 4.9 N 9 9 5 5 1016.4 - 0.0
23/06:30pm 22.1 21.2 11.2 50 6.1 NNE 7 9 4 5 1016.2 - 0.0
23/06:00pm 23.1 22.1 10.9 46 6.9 ENE 7 9 4 5 1016.0 1014.5 0.0
23/05:30pm 24.7 23.1 10.2 40 8.1 ENE 9 11 5 6 1015.8 - 0.0
23/05:00pm 26.6 24.5 9.9 35 9.4 E 11 15 6 8 1015.6 - 0.0
23/04:30pm 27.4 25.8 10.2 34 9.8 E 9 15 5 8 1015.6 - 0.0
23/04:00pm 27.6 25.5 9.9 33 10.0 ESE 11 19 6 10 1015.6 - 0.0
23/03:30pm 28.2 25.4 9.9 32 10.4 E 15 19 8 10 1015.7 - 0.0
23/03:00pm 28.4 26.5 10.6 33 10.2 ENE 11 15 6 8 1015.7 1014.2 0.0
23/02:30pm 28.1 26.1 10.3 33 10.2 E 11 19 6 10 1015.8 - 0.0
23/02:00pm 27.8 25.9 10.5 34 9.9 E 11 19 6 10 1016.0 - 0.0
23/01:30pm 28.2 26.9 11.3 35 9.8 NNW 9 20 5 11 1016.2 - 0.0
23/01:00pm 27.4 25.3 9.7 33 10.0 NE 11 19 6 10 1016.6 - 0.0
23/12:30pm 27.1 26.0 12.0 39 8.8 NNE 9 17 5 9 1017.3 - 0.0
23/12:00pm 26.7 25.5 11.6 39 8.7 N 9 19 5 10 1017.8 1016.2 0.0
23/11:30am 26.5 25.2 12.5 41 8.2 NNW 11 17 6 9 1018.4 - 0.0
23/11:00am 25.9 24.6 13.7 47 7.3 N 13 20 7 11 1019.0 - 0.0
23/10:30am 25.5 23.4 13.7 48 7.0 N 17 24 9 13 1019.3 - 0.0
23/10:00am 24.3 22.4 14.1 53 6.1 N 17 24 9 13 1019.5 - 0.0
23/09:30am 23.6 21.2 14.3 56 5.6 N 20 26 11 14 1019.6 - 0.0
23/09:00am 21.9 19.1 13.3 58 5.0 N 20 26 11 14 1019.6 1018.1 0.0
23/08:30am 20.8 18.2 13.3 62 4.4 N 19 22 10 12 1019.7 - 0.0
23/08:00am 19.2 17.9 12.5 65 3.8 N 11 15 6 8 1019.7 - 0.0
23/07:30am 17.3 16.7 11.8 70 3.1 NE 6 7 3 4 1019.4 - 0.0
23/07:00am 14.4 13.3 10.8 79 1.9 NNE 7 11 4 6 1019.0 - 0.0
23/06:30am 13.2 11.5 9.8 80 1.8 NNE 9 13 5 7 1018.8 - 0.0
23/06:00am 13.7 11.6 9.9 78 2.0 NNE 11 13 6 7 1018.5 1017.0 0.0
23/05:30am 14.0 11.9 9.8 76 2.2 NNE 11 11 6 6 1018.2 - 0.0
23/05:00am 15.3 13.0 10.3 72 2.7 N 13 17 7 9 1018.1 - 0.0
23/04:30am 15.2 12.9 10.6 74 2.5 N 13 15 7 8 1018.0 - 0.0
23/04:00am 14.6 12.2 10.0 74 2.4 N 13 15 7 8 1017.9 - 0.0
23/03:30am 15.1 13.5 10.3 73 2.6 N 9 11 5 6 1017.7 - 0.0
23/03:00am 14.7 12.2 9.7 72 2.6 N 13 15 7 8 1017.6 1016.0 0.0
23/02:30am 14.7 12.5 9.5 71 2.7 N 11 13 6 7 1017.6 - 0.0
23/02:00am 14.8 12.6 9.2 69 2.9 N 11 13 6 7 1017.6 - 0.0
23/01:30am 14.9 12.2 9.1 68 3.0 N 13 13 7 7 1017.8 - 0.0
23/01:00am 14.8 12.9 9.2 69 2.9 N 9 11 5 6 1018.2 - 0.0
23/12:30am 14.5 12.2 8.9 69 2.9 N 11 13 6 7 1018.4 - 0.0
23/12:00am 15.4 13.5 9.1 66 3.3 N 9 11 5 6 1018.4 1016.9 0.0
 
Date/Time
EST
Temp
°C
App
Temp
°C
Dew
Point
Rel
Hum
%
Delta-T
°C
Wind Press
QNH
hPa
Press
MSL
hPa
Rain
since 9 am
mm
Dir
 
Spd
km/h
Gust
km/h
Spd
kts
Gust
kts
22/11:30pm 15.5 12.7 8.7 64 3.5 N 13 15 7 8 1018.6 - 0.0
22/11:00pm 15.1 12.4 9.0 67 3.2 N 13 15 7 8 1018.8 - 0.0
22/10:30pm 15.2 12.9 8.9 66 3.3 N 11 13 6 7 1018.9 - 0.0
22/10:00pm 15.6 12.9 8.8 64 3.5 N 13 15 7 8 1018.9 - 0.0
22/09:30pm 16.2 13.6 9.4 64 3.6 N 13 15 7 8 1019.0 - 0.0
22/09:00pm 16.3 13.6 9.0 62 3.8 N 13 15 7 8 1019.0 1017.5 0.0
22/08:30pm 16.9 14.3 9.3 61 4.0 N 13 13 7 7 1018.9 - 0.0
22/08:00pm 17.6 15.4 9.2 58 4.4 N 11 13 6 7 1018.9 - 0.0
22/07:30pm 18.0 15.9 9.6 58 4.5 N 11 11 6 6 1018.6 - 0.0
22/07:00pm 18.8 16.7 9.8 56 4.9 N 11 13 6 7 1018.4 - 0.0
22/06:30pm 19.9 17.7 9.5 51 5.6 N 11 13 6 7 1018.2 - 0.0
22/06:00pm 22.3 19.8 9.8 45 6.9 NNE 13 15 7 8 1018.0 1016.4 0.0
22/05:30pm 23.7 21.2 9.7 41 7.7 NNE 13 15 7 8 1017.9 - 0.0
22/05:00pm 25.5 22.9 9.3 36 9.0 NNE 13 19 7 10 1017.7 - 0.0
22/04:30pm 26.1 23.0 9.0 34 9.5 NE 15 19 8 10 1017.6 - 0.0
22/04:00pm 27.1 24.7 8.5 31 10.2 E 11 19 6 10 1017.5 - 0.0
22/03:30pm 27.2 24.2 9.1 32 10.1 ENE 15 24 8 13 1017.6 - 0.0
22/03:00pm 27.0 23.3 9.4 33 9.8 NNE 19 24 10 13 1017.7 1016.1 0.0
22/02:30pm 27.6 24.8 9.9 33 10.0 ENE 15 24 8 13 1017.9 - 0.0
22/02:00pm 27.7 24.0 9.5 32 10.2 ENE 19 26 10 14 1018.1 - 0.0
22/01:30pm 27.6 25.0 10.8 35 9.6 NNE 15 28 8 15 1018.5 - 0.0
22/01:00pm 27.3 24.4 9.6 33 9.9 NNE 15 26 8 14 1018.9 - 0.0
22/12:30pm 26.9 23.4 10.2 35 9.5 NE 19 24 10 13 1019.5 - 0.0
22/12:00pm 26.6 23.2 11.1 38 8.9 N 20 30 11 16 1020.0 1018.5 0.0
22/11:30am 26.7 23.8 12.4 41 8.4 NNE 19 30 10 16 1020.5 - 0.0
22/11:00am 25.6 21.6 11.7 42 8.0 N 24 33 13 18 1021.0 - 0.0
22/10:30am 25.1 21.6 13.3 48 7.0 N 24 30 13 16 1021.4 - 0.0
22/10:00am 24.0 20.4 12.9 50 6.5 NNE 24 33 13 18 1021.5 - 0.0
22/09:30am 23.2 20.1 13.4 54 5.8 N 22 32 12 17 1021.7 - 0.0
22/09:00am 20.9 18.8 13.6 63 4.2 N 17 24 9 13 1021.6 1020.1 0.0
22/08:30am 20.0 18.5 13.2 65 3.9 N 13 19 7 10 1021.7 - 0.0
22/08:00am 18.1 16.9 12.8 71 3.0 NNE 11 15 6 8 1021.5 - 0.0
22/07:30am 16.7 15.2 12.0 74 2.6 NNE 11 13 6 7 1021.3 - 0.0
22/07:00am 15.3 13.9 12.1 81 1.8 N 11 13 6 7 1021.2 - 0.0
22/06:30am 13.5 11.7 10.9 84 1.4 N 11 13 6 7 1020.3 - 0.0
22/06:00am 13.8 11.7 11.1 84 1.4 N 13 15 7 8 1020.1 1018.6 0.0
22/05:30am 13.3 11.0 10.5 83 1.5 N 13 17 7 9 1019.9 - 0.0
22/05:00am 14.3 12.1 10.9 80 1.8 N 13 15 7 8 1019.8 - 0.0
22/04:30am 13.6 11.2 10.2 80 1.8 NE 13 15 7 8 1019.6 - 0.0
22/04:00am 14.1 11.8 10.3 78 2.0 NNE 13 15 7 8 1019.2 - 0.0
22/03:30am 13.2 11.4 9.3 77 2.0 NNE 9 11 5 6 1018.9 - 0.0
22/03:00am 14.2 12.5 9.8 75 2.3 N 9 11 5 6 1019.1 1017.6 0.0
22/02:30am 15.0 13.4 10.2 73 2.6 N 9 11 5 6 1018.9 - 0.0
22/02:00am 14.7 12.6 9.9 73 2.5 N 11 13 6 7 1019.1 - 0.0
22/01:30am 15.4 13.4 10.0 70 2.9 N 11 13 6 7 1019.1 - 0.0
22/01:00am 16.9 14.6 10.5 66 3.5 N 13 15 7 8 1019.2 - 0.0
22/12:30am 16.1 13.8 10.6 70 3.0 N 13 17 7 9 1019.0 - 0.0
22/12:00am 17.3 15.1 10.9 66 3.5 NNE 13 15 7 8 1019.3 1017.8 0.0
 
Date/Time
EST
Temp
°C
App
Temp
°C
Dew
Point
Rel
Hum
%
Delta-T
°C
Wind Press
QNH
hPa
Press
MSL
hPa
Rain
since 9 am
mm
Dir
 
Spd
km/h
Gust
km/h
Spd
kts
Gust
kts
21/11:30pm 17.6 15.3 10.5 63 3.9 NNE 13 15 7 8 1019.3 - 0.0
21/11:00pm 17.8 15.2 10.7 63 3.9 N 15 19 8 10 1019.3 - 0.0
21/10:30pm 17.7 15.1 10.6 63 3.9 N 15 15 8 8 1019.3 - 0.0
21/10:00pm 18.6 16.1 10.9 61 4.2 N 15 17 8 9 1019.4 - 0.0
21/09:30pm 17.3 15.4 10.4 64 3.7 N 11 13 6 7 1019.3 - 0.0
21/09:00pm 18.1 16.2 10.5 61 4.1 N 11 13 6 7 1019.2 1017.7 0.0
21/08:30pm 18.7 17.1 10.3 58 4.6 N 9 11 5 6 1019.1 - 0.0
21/08:00pm 19.1 17.1 10.1 56 4.9 NNE 11 13 6 7 1019.0 - 0.0
21/07:30pm 20.2 18.2 10.3 53 5.4 NNE 11 15 6 8 1018.6 - 0.0
21/07:00pm 21.4 19.7 9.9 48 6.3 NNE 9 13 5 7 1018.5 - 0.0
21/06:30pm 23.2 20.8 9.9 43 7.4 NE 13 17 7 9 1018.3 - 0.0
21/06:00pm 24.1 21.7 10.0 41 7.8 NE 13 17 7 9 1018.1 1016.5 0.0
21/05:30pm 25.8 23.0 10.0 37 8.9 ENE 15 19 8 10 1017.9 - 0.0
21/05:00pm 27.4 24.1 9.7 33 10.0 NE 17 22 9 12 1017.7 - 0.0
21/04:30pm 28.3 25.0 9.6 31 10.6 E 17 20 9 11 1017.5 - 0.0
21/04:00pm 29.2 27.1 9.8 30 11.0 E 11 26 6 14 1017.3 - 0.0

Other Formats:

Comma delimited format used in spreadsheet applications
http://www.bom.gov.au/fwo/IDQ60801/IDQ60801.94515.axf

JavaScript Object Notation format (JSON) in row-major order
http://www.bom.gov.au/fwo/IDQ60801/IDQ60801.94515.json